createdAt,value
2019-04-23T17:03:36.219Z,12.70
2019-04-23T17:08:59.736Z,13.30
2019-04-23T17:14:07.045Z,13.40
2019-04-23T17:16:34.053Z,13.40
2019-04-23T17:19:11.431Z,13.40
2019-04-23T17:21:51.257Z,13.50
2019-04-23T17:27:10.118Z,13.60
2019-04-23T17:29:41.741Z,13.30
2019-04-23T17:32:41.233Z,13.30
2019-04-23T17:35:09.636Z,13.40
2019-04-23T17:37:48.658Z,13.40
2019-04-23T17:40:34.208Z,13.40
2019-04-23T17:43:16.579Z,13.30
2019-04-23T17:45:59.298Z,13.20
2019-04-23T17:48:34.739Z,13.10
2019-04-23T17:53:49.836Z,12.90
2019-04-23T17:56:37.181Z,12.80
2019-04-23T17:59:04.364Z,12.90
2019-04-23T18:01:36.004Z,13.00
2019-04-23T18:09:37.902Z,13.70
2019-04-23T18:12:01.915Z,14.00
2019-04-23T18:14:21.572Z,13.90
2019-04-23T18:37:32.543Z,14.30
2019-04-23T18:43:39.007Z,14.80
2019-04-23T18:46:18.687Z,15.10
2019-04-23T19:05:01.436Z,14.90
2019-04-23T19:07:42.377Z,15.10
2019-04-23T19:22:06.277Z,15.10
2019-04-23T19:24:14.050Z,15.40
2019-04-23T19:41:54.302Z,14.90
2019-04-23T19:44:08.405Z,15.10
2019-04-23T19:46:54.943Z,15.40
2019-04-23T19:51:59.598Z,15.90
2019-04-23T19:57:22.354Z,15.70
2019-04-23T19:59:50.599Z,15.70
2019-04-23T20:04:56.016Z,15.80
2019-04-23T20:07:43.111Z,15.60
2019-04-23T20:10:04.147Z,15.40
2019-04-23T20:12:42.907Z,15.10
2019-04-23T20:15:07.288Z,15.10
2019-04-23T20:17:54.526Z,15.10
2019-04-23T20:30:37.864Z,14.40
2019-04-23T20:35:46.862Z,14.20
2019-04-23T20:38:44.830Z,14.20
2019-04-23T20:41:08.235Z,14.20
2019-04-23T20:43:47.222Z,14.20
2019-04-23T20:46:06.285Z,14.30
2019-04-23T20:48:49.060Z,14.20
2019-04-23T20:51:39.194Z,14.30
2019-04-23T20:54:02.276Z,14.50
2019-04-23T21:00:14.197Z,14.70
2019-04-23T21:03:33.646Z,14.70
2019-04-23T21:05:49.995Z,14.80
2019-04-23T21:08:30.171Z,15.10
2019-04-23T21:10:48.338Z,15.40
2019-04-23T21:13:53.180Z,15.70
2019-04-23T21:16:08.539Z,16.00
2019-04-23T21:21:22.273Z,16.50
2019-04-23T21:26:37.192Z,16.90
2019-04-23T21:29:05.039Z,17.00
2019-04-23T21:31:48.432Z,17.40
2019-04-23T21:34:24.932Z,17.30
2019-04-23T21:37:06.223Z,17.10
2019-04-23T21:40:04.725Z,16.90
2019-04-23T21:42:59.062Z,16.60
2019-04-23T21:45:35.464Z,16.60
2019-04-23T21:48:10.271Z,16.60
2019-04-23T21:51:09.596Z,16.00
2019-04-23T21:53:46.387Z,15.80
2019-04-23T21:56:15.592Z,15.60
2019-04-23T22:01:36.952Z,15.10
2019-04-23T22:04:24.683Z,14.80
2019-04-23T22:06:56.047Z,14.60
2019-04-23T22:15:04.660Z,14.70
2019-04-23T22:17:46.230Z,14.80
2019-04-23T22:23:08.795Z,14.80
2019-04-23T22:25:50.581Z,14.80
2019-04-23T22:28:50.436Z,14.60
2019-04-23T22:39:52.520Z,14.60
2019-04-23T22:42:34.974Z,14.70
2019-04-23T22:45:08.927Z,15.00
2019-04-23T22:47:42.913Z,15.30
2019-04-23T22:50:18.862Z,16.00
2019-04-23T22:53:02.660Z,16.30
2019-04-23T22:55:49.768Z,16.40
2019-04-23T22:58:09.682Z,16.40
2019-04-23T23:01:26.250Z,16.00
2019-04-23T23:04:15.510Z,15.90
2019-04-23T23:12:02.297Z,15.30
2019-04-23T23:14:46.558Z,15.20
2019-04-23T23:17:22.056Z,15.20
2019-04-23T23:20:11.802Z,15.20
2019-04-23T23:22:57.290Z,15.00
2019-04-23T23:26:00.748Z,14.80
2019-04-23T23:28:58.999Z,14.80
